sensor_id;sensor_type;location;lat;lon;timestamp;P1;durP1;ratioP1;P2;durP2;ratioP2
57309;SDS011;43153;50.984;18.204;2023-02-01T00:01:17;4.20;;;0.70;;
57309;SDS011;43153;50.984;18.204;2023-02-01T00:03:43;3.50;;;0.90;;
57309;SDS011;43153;50.984;18.204;2023-02-01T00:06:09;9.70;;;0.80;;
57309;SDS011;43153;50.984;18.204;2023-02-01T00:08:37;4.80;;;0.80;;
57309;SDS011;43153;50.984;18.204;2023-02-01T00:11:05;6.20;;;1.20;;
57309;SDS011;43153;50.984;18.204;2023-02-01T00:13:33;7.10;;;0.80;;
57309;SDS011;43153;50.984;18.204;2023-02-01T00:16:08;5.20;;;0.90;;
57309;SDS011;43153;50.984;18.204;2023-02-01T00:18:44;8.50;;;1.00;;
57309;SDS011;43153;50.984;18.204;2023-02-01T00:21:14;5.00;;;0.60;;
57309;SDS011;43153;50.984;18.204;2023-02-01T00:23:41;4.70;;;0.50;;
57309;SDS011;43153;50.984;18.204;2023-02-01T00:26:11;3.40;;;0.60;;
57309;SDS011;43153;50.984;18.204;2023-02-01T00:29:09;13.30;;;1.20;;
57309;SDS011;43153;50.984;18.204;2023-02-01T00:31:45;9.80;;;1.00;;
57309;SDS011;43153;50.984;18.204;2023-02-01T00:34:14;6.70;;;1.20;;
57309;SDS011;43153;50.984;18.204;2023-02-01T00:36:42;6.80;;;0.80;;
57309;SDS011;43153;50.984;18.204;2023-02-01T00:39:11;10.00;;;1.60;;
57309;SDS011;43153;50.984;18.204;2023-02-01T00:41:45;8.90;;;1.10;;
57309;SDS011;43153;50.984;18.204;2023-02-01T00:44:14;13.20;;;1.20;;
57309;SDS011;43153;50.984;18.204;2023-02-01T00:46:40;6.90;;;1.10;;
57309;SDS011;43153;50.984;18.204;2023-02-01T00:49:07;5.90;;;1.00;;
57309;SDS011;43153;50.984;18.204;2023-02-01T00:51:34;5.10;;;0.60;;
57309;SDS011;43153;50.984;18.204;2023-02-01T00:54:01;9.40;;;1.10;;
57309;SDS011;43153;50.984;18.204;2023-02-01T00:56:33;6.60;;;0.80;;
57309;SDS011;43153;50.984;18.204;2023-02-01T00:59:10;12.60;;;0.90;;
57309;SDS011;43153;50.984;18.204;2023-02-01T01:01:37;7.00;;;0.90;;
57309;SDS011;43153;50.984;18.204;2023-02-01T01:04:05;7.60;;;1.00;;
57309;SDS011;43153;50.984;18.204;2023-02-01T01:06:33;14.10;;;1.40;;
57309;SDS011;43153;50.984;18.204;2023-02-01T01:09:00;11.00;;;1.40;;
57309;SDS011;43153;50.984;18.204;2023-02-01T01:11:29;11.40;;;1.60;;
57309;SDS011;43153;50.984;18.204;2023-02-01T01:13:58;11.20;;;1.80;;
57309;SDS011;43153;50.984;18.204;2023-02-01T01:16:26;10.70;;;0.90;;
57309;SDS011;43153;50.984;18.204;2023-02-01T01:18:54;9.20;;;1.00;;
57309;SDS011;43153;50.984;18.204;2023-02-01T01:21:20;10.30;;;1.20;;
57309;SDS011;43153;50.984;18.204;2023-02-01T01:23:47;7.40;;;1.00;;
57309;SDS011;43153;50.984;18.204;2023-02-01T01:26:14;8.60;;;1.50;;
57309;SDS011;43153;50.984;18.204;2023-02-01T01:28:42;10.30;;;2.10;;
57309;SDS011;43153;50.984;18.204;2023-02-01T01:31:14;5.40;;;1.00;;
57309;SDS011;43153;50.984;18.204;2023-02-01T01:33:48;7.00;;;0.90;;
57309;SDS011;43153;50.984;18.204;2023-02-01T01:36:15;5.00;;;0.80;;
57309;SDS011;43153;50.984;18.204;2023-02-01T01:38:44;5.50;;;0.60;;
57309;SDS011;43153;50.984;18.204;2023-02-01T01:41:13;4.10;;;0.70;;
57309;SDS011;43153;50.984;18.204;2023-02-01T01:43:55;10.90;;;0.90;;
57309;SDS011;43153;50.984;18.204;2023-02-01T01:46:27;5.40;;;0.70;;
57309;SDS011;43153;50.984;18.204;2023-02-01T01:51:35;6.70;;;0.50;;
57309;SDS011;43153;50.984;18.204;2023-02-01T01:56:53;7.90;;;1.10;;
57309;SDS011;43153;50.984;18.204;2023-02-01T01:59:25;3.40;;;0.60;;
57309;SDS011;43153;50.984;18.204;2023-02-01T02:01:51;6.30;;;0.90;;
57309;SDS011;43153;50.984;18.204;2023-02-01T02:04:18;3.70;;;0.80;;
57309;SDS011;43153;50.984;18.204;2023-02-01T02:06:46;4.50;;;0.80;;
57309;SDS011;43153;50.984;18.204;2023-02-01T02:09:16;8.50;;;1.10;;
57309;SDS011;43153;50.984;18.204;2023-02-01T02:11:43;10.40;;;0.80;;
57309;SDS011;43153;50.984;18.204;2023-02-01T02:14:11;4.70;;;1.00;;
57309;SDS011;43153;50.984;18.204;2023-02-01T02:38:18;5.70;;;0.60;;
57309;SDS011;43153;50.984;18.204;2023-02-01T02:43:45;4.70;;;0.70;;
57309;SDS011;43153;50.984;18.204;2023-02-01T02:46:36;5.80;;;1.00;;
57309;SDS011;43153;50.984;18.204;2023-02-01T02:49:26;8.20;;;0.70;;
57309;SDS011;43153;50.984;18.204;2023-02-01T02:51:56;5.20;;;0.60;;
57309;SDS011;43153;50.984;18.204;2023-02-01T02:54:46;3.40;;;0.70;;
57309;SDS011;43153;50.984;18.204;2023-02-01T02:57:25;4.60;;;0.60;;
57309;SDS011;43153;50.984;18.204;2023-02-01T03:00:21;5.20;;;0.80;;
57309;SDS011;43153;50.984;18.204;2023-02-01T03:03:09;7.90;;;1.80;;
57309;SDS011;43153;50.984;18.204;2023-02-01T03:05:54;8.70;;;1.00;;
57309;SDS011;43153;50.984;18.204;2023-02-01T03:08:28;7.90;;;1.20;;
57309;SDS011;43153;50.984;18.204;2023-02-01T03:11:00;4.40;;;1.10;;
57309;SDS011;43153;50.984;18.204;2023-02-01T03:21:31;4.10;;;0.60;;
57309;SDS011;43153;50.984;18.204;2023-02-01T03:24:00;6.40;;;0.70;;
57309;SDS011;43153;50.984;18.204;2023-02-01T03:26:30;6.80;;;1.00;;
57309;SDS011;43153;50.984;18.204;2023-02-01T03:29:02;6.90;;;0.60;;
57309;SDS011;43153;50.984;18.204;2023-02-01T03:31:38;6.90;;;0.70;;
57309;SDS011;43153;50.984;18.204;2023-02-01T03:34:05;7.80;;;1.20;;
57309;SDS011;43153;50.984;18.204;2023-02-01T03:36:42;7.80;;;0.90;;
57309;SDS011;43153;50.984;18.204;2023-02-01T03:39:15;7.20;;;1.00;;
57309;SDS011;43153;50.984;18.204;2023-02-01T03:41:51;5.90;;;0.70;;
57309;SDS011;43153;50.984;18.204;2023-02-01T03:44:41;6.30;;;0.60;;
57309;SDS011;43153;50.984;18.204;2023-02-01T03:47:30;8.80;;;0.80;;
57309;SDS011;43153;50.984;18.204;2023-02-01T03:50:05;10.40;;;1.20;;
57309;SDS011;43153;50.984;18.204;2023-02-01T03:52:37;9.00;;;0.80;;
57309;SDS011;43153;50.984;18.204;2023-02-01T03:55:31;6.10;;;0.70;;
57309;SDS011;43153;50.984;18.204;2023-02-01T03:58:01;15.40;;;1.60;;
57309;SDS011;43153;50.984;18.204;2023-02-01T04:00:31;7.20;;;0.90;;
57309;SDS011;43153;50.984;18.204;2023-02-01T04:02:58;8.80;;;0.80;;
57309;SDS011;43153;50.984;18.204;2023-02-01T04:05:24;8.30;;;0.60;;
57309;SDS011;43153;50.984;18.204;2023-02-01T04:07:50;12.10;;;1.40;;
57309;SDS011;43153;50.984;18.204;2023-02-01T04:10:16;13.80;;;1.60;;
57309;SDS011;43153;50.984;18.204;2023-02-01T04:13:02;7.50;;;1.10;;
57309;SDS011;43153;50.984;18.204;2023-02-01T04:15:32;6.60;;;1.20;;
57309;SDS011;43153;50.984;18.204;2023-02-01T04:18:00;8.10;;;2.00;;
57309;SDS011;43153;50.984;18.204;2023-02-01T04:20:29;8.70;;;1.50;;
57309;SDS011;43153;50.984;18.204;2023-02-01T04:22:55;9.30;;;1.10;;
57309;SDS011;43153;50.984;18.204;2023-02-01T04:25:23;11.10;;;1.20;;
57309;SDS011;43153;50.984;18.204;2023-02-01T04:27:50;12.20;;;1.60;;
57309;SDS011;43153;50.984;18.204;2023-02-01T04:30:16;6.60;;;1.10;;
57309;SDS011;43153;50.984;18.204;2023-02-01T04:32:44;5.00;;;1.20;;
57309;SDS011;43153;50.984;18.204;2023-02-01T04:35:11;9.60;;;1.30;;
57309;SDS011;43153;50.984;18.204;2023-02-01T04:37:38;11.50;;;1.00;;
57309;SDS011;43153;50.984;18.204;2023-02-01T04:40:05;13.60;;;2.80;;
57309;SDS011;43153;50.984;18.204;2023-02-01T04:42:35;15.10;;;1.50;;
57309;SDS011;43153;50.984;18.204;2023-02-01T04:45:10;20.80;;;1.70;;
57309;SDS011;43153;50.984;18.204;2023-02-01T04:47:40;10.00;;;1.20;;
57309;SDS011;43153;50.984;18.204;2023-02-01T04:50:09;17.60;;;1.60;;
57309;SDS011;43153;50.984;18.204;2023-02-01T04:52:36;8.90;;;1.10;;
57309;SDS011;43153;50.984;18.204;2023-02-01T04:55:03;13.90;;;1.40;;
57309;SDS011;43153;50.984;18.204;2023-02-01T04:57:33;9.90;;;1.20;;
57309;SDS011;43153;50.984;18.204;2023-02-01T04:59:59;11.10;;;1.40;;
57309;SDS011;43153;50.984;18.204;2023-02-01T05:02:25;8.10;;;1.00;;
57309;SDS011;43153;50.984;18.204;2023-02-01T05:04:51;10.50;;;1.30;;
57309;SDS011;43153;50.984;18.204;2023-02-01T05:07:19;6.90;;;1.30;;
57309;SDS011;43153;50.984;18.204;2023-02-01T05:09:45;15.90;;;1.80;;
57309;SDS011;43153;50.984;18.204;2023-02-01T05:12:11;12.10;;;1.50;;
57309;SDS011;43153;50.984;18.204;2023-02-01T05:14:56;9.90;;;1.50;;
57309;SDS011;43153;50.984;18.204;2023-02-01T05:17:22;12.80;;;1.50;;
57309;SDS011;43153;50.984;18.204;2023-02-01T05:19:54;10.60;;;2.20;;
57309;SDS011;43153;50.984;18.204;2023-02-01T05:22:33;13.60;;;1.90;;
57309;SDS011;43153;50.984;18.204;2023-02-01T05:25:01;11.50;;;1.90;;
57309;SDS011;43153;50.984;18.204;2023-02-01T05:27:28;10.70;;;1.30;;
57309;SDS011;43153;50.984;18.204;2023-02-01T05:29:56;10.80;;;1.70;;
57309;SDS011;43153;50.984;18.204;2023-02-01T05:32:23;9.00;;;2.40;;
57309;SDS011;43153;50.984;18.204;2023-02-01T05:34:50;12.50;;;1.30;;
57309;SDS011;43153;50.984;18.204;2023-02-01T05:37:18;5.90;;;0.90;;
57309;SDS011;43153;50.984;18.204;2023-02-01T05:39:51;10.20;;;1.30;;
57309;SDS011;43153;50.984;18.204;2023-02-01T05:42:21;10.50;;;1.60;;
57309;SDS011;43153;50.984;18.204;2023-02-01T05:44:48;11.70;;;1.60;;
57309;SDS011;43153;50.984;18.204;2023-02-01T05:47:14;12.00;;;1.70;;
57309;SDS011;43153;50.984;18.204;2023-02-01T05:49:41;12.10;;;2.00;;
57309;SDS011;43153;50.984;18.204;2023-02-01T05:52:12;10.60;;;1.40;;
57309;SDS011;43153;50.984;18.204;2023-02-01T05:54:41;10.10;;;1.70;;
57309;SDS011;43153;50.984;18.204;2023-02-01T05:57:42;13.70;;;1.80;;
57309;SDS011;43153;50.984;18.204;2023-02-01T06:00:16;11.00;;;1.70;;
57309;SDS011;43153;50.984;18.204;2023-02-01T06:02:44;11.10;;;1.10;;
57309;SDS011;43153;50.984;18.204;2023-02-01T06:05:10;8.10;;;1.10;;
57309;SDS011;43153;50.984;18.204;2023-02-01T06:07:37;7.90;;;1.30;;
57309;SDS011;43153;50.984;18.204;2023-02-01T06:10:07;10.00;;;1.90;;
57309;SDS011;43153;50.984;18.204;2023-02-01T06:12:43;13.20;;;1.60;;
57309;SDS011;43153;50.984;18.204;2023-02-01T06:15:16;10.60;;;1.50;;
57309;SDS011;43153;50.984;18.204;2023-02-01T06:17:44;9.60;;;1.20;;
57309;SDS011;43153;50.984;18.204;2023-02-01T06:20:11;10.50;;;2.00;;
57309;SDS011;43153;50.984;18.204;2023-02-01T06:22:41;9.60;;;1.40;;
57309;SDS011;43153;50.984;18.204;2023-02-01T06:25:09;9.20;;;2.10;;
57309;SDS011;43153;50.984;18.204;2023-02-01T06:28:30;9.00;;;1.10;;
57309;SDS011;43153;50.984;18.204;2023-02-01T06:31:05;14.20;;;1.80;;
57309;SDS011;43153;50.984;18.204;2023-02-01T06:33:34;9.00;;;1.00;;
57309;SDS011;43153;50.984;18.204;2023-02-01T06:36:15;8.20;;;1.60;;
57309;SDS011;43153;50.984;18.204;2023-02-01T06:38:44;8.50;;;2.30;;
57309;SDS011;43153;50.984;18.204;2023-02-01T06:41:10;8.30;;;1.10;;
57309;SDS011;43153;50.984;18.204;2023-02-01T06:43:39;12.20;;;2.00;;
57309;SDS011;43153;50.984;18.204;2023-02-01T06:47:13;14.50;;;1.30;;
57309;SDS011;43153;50.984;18.204;2023-02-01T06:49:42;8.20;;;1.20;;
57309;SDS011;43153;50.984;18.204;2023-02-01T06:52:08;9.20;;;1.50;;
57309;SDS011;43153;50.984;18.204;2023-02-01T06:54:37;11.60;;;1.80;;
57309;SDS011;43153;50.984;18.204;2023-02-01T06:57:07;15.50;;;1.60;;
57309;SDS011;43153;50.984;18.204;2023-02-01T06:59:58;12.70;;;1.50;;
57309;SDS011;43153;50.984;18.204;2023-02-01T07:02:25;10.30;;;1.60;;
57309;SDS011;43153;50.984;18.204;2023-02-01T07:04:55;10.60;;;1.20;;
57309;SDS011;43153;50.984;18.204;2023-02-01T07:07:24;10.80;;;1.90;;
57309;SDS011;43153;50.984;18.204;2023-02-01T07:09:51;9.90;;;1.10;;
57309;SDS011;43153;50.984;18.204;2023-02-01T07:12:19;11.00;;;2.10;;
57309;SDS011;43153;50.984;18.204;2023-02-01T07:14:56;6.60;;;1.10;;
57309;SDS011;43153;50.984;18.204;2023-02-01T07:17:24;7.00;;;1.10;;
57309;SDS011;43153;50.984;18.204;2023-02-01T07:19:51;9.60;;;1.80;;
57309;SDS011;43153;50.984;18.204;2023-02-01T07:22:19;13.10;;;2.50;;
57309;SDS011;43153;50.984;18.204;2023-02-01T07:24:47;7.60;;;1.30;;
57309;SDS011;43153;50.984;18.204;2023-02-01T07:27:20;11.50;;;1.70;;
57309;SDS011;43153;50.984;18.204;2023-02-01T07:29:51;12.10;;;1.60;;
57309;SDS011;43153;50.984;18.204;2023-02-01T07:32:17;7.90;;;1.30;;
57309;SDS011;43153;50.984;18.204;2023-02-01T07:34:44;11.30;;;1.60;;
57309;SDS011;43153;50.984;18.204;2023-02-01T07:37:11;16.40;;;2.00;;
57309;SDS011;43153;50.984;18.204;2023-02-01T07:39:39;12.90;;;2.10;;
57309;SDS011;43153;50.984;18.204;2023-02-01T07:42:06;11.50;;;2.00;;
57309;SDS011;43153;50.984;18.204;2023-02-01T07:44:33;10.50;;;1.40;;
57309;SDS011;43153;50.984;18.204;2023-02-01T07:46:59;6.20;;;1.20;;
57309;SDS011;43153;50.984;18.204;2023-02-01T07:49:26;9.80;;;1.60;;
57309;SDS011;43153;50.984;18.204;2023-02-01T07:51:53;9.70;;;1.50;;
57309;SDS011;43153;50.984;18.204;2023-02-01T07:54:19;12.30;;;1.60;;
57309;SDS011;43153;50.984;18.204;2023-02-01T07:56:45;11.50;;;1.60;;
57309;SDS011;43153;50.984;18.204;2023-02-01T07:59:13;10.50;;;1.20;;
57309;SDS011;43153;50.984;18.204;2023-02-01T08:01:42;10.20;;;1.70;;
57309;SDS011;43153;50.984;18.204;2023-02-01T08:04:09;16.20;;;2.50;;
57309;SDS011;43153;50.984;18.204;2023-02-01T08:06:37;11.10;;;2.20;;
57309;SDS011;43153;50.984;18.204;2023-02-01T08:09:05;11.90;;;1.70;;
57309;SDS011;43153;50.984;18.204;2023-02-01T08:11:36;10.50;;;1.80;;
57309;SDS011;43153;50.984;18.204;2023-02-01T08:14:05;13.40;;;2.20;;
57309;SDS011;43153;50.984;18.204;2023-02-01T08:16:32;12.80;;;2.80;;
57309;SDS011;43153;50.984;18.204;2023-02-01T08:19:01;13.40;;;1.80;;
57309;SDS011;43153;50.984;18.204;2023-02-01T08:21:28;10.40;;;2.00;;
57309;SDS011;43153;50.984;18.204;2023-02-01T08:24:06;12.70;;;2.40;;
57309;SDS011;43153;50.984;18.204;2023-02-01T08:26:35;10.20;;;1.80;;
57309;SDS011;43153;50.984;18.204;2023-02-01T08:29:06;6.20;;;1.60;;
57309;SDS011;43153;50.984;18.204;2023-02-01T08:31:39;10.40;;;1.60;;
57309;SDS011;43153;50.984;18.204;2023-02-01T08:34:12;6.80;;;1.20;;
57309;SDS011;43153;50.984;18.204;2023-02-01T08:36:40;13.10;;;1.80;;
57309;SDS011;43153;50.984;18.204;2023-02-01T08:39:06;8.00;;;1.10;;
57309;SDS011;43153;50.984;18.204;2023-02-01T08:41:34;7.20;;;1.10;;
57309;SDS011;43153;50.984;18.204;2023-02-01T08:44:02;8.30;;;1.00;;
57309;SDS011;43153;50.984;18.204;2023-02-01T08:46:28;11.30;;;1.30;;
57309;SDS011;43153;50.984;18.204;2023-02-01T08:48:57;11.70;;;1.60;;
57309;SDS011;43153;50.984;18.204;2023-02-01T08:51:36;9.40;;;1.20;;
57309;SDS011;43153;50.984;18.204;2023-02-01T08:54:06;11.10;;;1.40;;
57309;SDS011;43153;50.984;18.204;2023-02-01T08:56:33;12.90;;;1.90;;
57309;SDS011;43153;50.984;18.204;2023-02-01T08:59:02;8.60;;;2.00;;
57309;SDS011;43153;50.984;18.204;2023-02-01T09:01:44;11.60;;;1.60;;
57309;SDS011;43153;50.984;18.204;2023-02-01T09:04:11;11.20;;;2.00;;
57309;SDS011;43153;50.984;18.204;2023-02-01T09:06:40;9.60;;;2.00;;
57309;SDS011;43153;50.984;18.204;2023-02-01T09:09:08;10.70;;;1.70;;
57309;SDS011;43153;50.984;18.204;2023-02-01T09:11:35;9.70;;;1.70;;
57309;SDS011;43153;50.984;18.204;2023-02-01T09:14:04;10.00;;;1.70;;
57309;SDS011;43153;50.984;18.204;2023-02-01T09:16:31;7.80;;;1.30;;
57309;SDS011;43153;50.984;18.204;2023-02-01T09:19:09;10.70;;;1.90;;
57309;SDS011;43153;50.984;18.204;2023-02-01T09:21:38;13.40;;;1.80;;
57309;SDS011;43153;50.984;18.204;2023-02-01T09:24:05;9.10;;;1.70;;
57309;SDS011;43153;50.984;18.204;2023-02-01T09:26:36;11.60;;;1.30;;
57309;SDS011;43153;50.984;18.204;2023-02-01T09:29:06;14.40;;;1.30;;
57309;SDS011;43153;50.984;18.204;2023-02-01T09:31:38;7.50;;;1.30;;
57309;SDS011;43153;50.984;18.204;2023-02-01T09:34:05;9.60;;;1.30;;
57309;SDS011;43153;50.984;18.204;2023-02-01T09:36:32;6.30;;;1.80;;
57309;SDS011;43153;50.984;18.204;2023-02-01T09:39:02;10.10;;;1.50;;
57309;SDS011;43153;50.984;18.204;2023-02-01T09:46:43;8.30;;;1.50;;
57309;SDS011;43153;50.984;18.204;2023-02-01T09:49:16;8.00;;;1.40;;
57309;SDS011;43153;50.984;18.204;2023-02-01T09:51:50;13.30;;;1.50;;
57309;SDS011;43153;50.984;18.204;2023-02-01T09:54:18;6.70;;;1.40;;
57309;SDS011;43153;50.984;18.204;2023-02-01T09:57:16;7.40;;;1.10;;
57309;SDS011;43153;50.984;18.204;2023-02-01T09:59:48;9.60;;;1.60;;
57309;SDS011;43153;50.984;18.204;2023-02-01T10:02:24;9.10;;;1.40;;
57309;SDS011;43153;50.984;18.204;2023-02-01T10:04:57;7.20;;;1.20;;
57309;SDS011;43153;50.984;18.204;2023-02-01T10:07:40;13.10;;;2.20;;
57309;SDS011;43153;50.984;18.204;2023-02-01T10:18:55;15.30;;;1.90;;
57309;SDS011;43153;50.984;18.204;2023-02-01T10:22:05;8.30;;;1.70;;
57309;SDS011;43153;50.984;18.204;2023-02-01T10:26:59;10.10;;;1.90;;
57309;SDS011;43153;50.984;18.204;2023-02-01T10:29:39;5.90;;;1.10;;
57309;SDS011;43153;50.984;18.204;2023-02-01T10:32:15;15.60;;;2.70;;
57309;SDS011;43153;50.984;18.204;2023-02-01T10:34:49;14.20;;;2.30;;
57309;SDS011;43153;50.984;18.204;2023-02-01T10:37:33;10.30;;;1.90;;
57309;SDS011;43153;50.984;18.204;2023-02-01T10:40:09;15.30;;;2.50;;
57309;SDS011;43153;50.984;18.204;2023-02-01T10:42:45;13.00;;;2.20;;
57309;SDS011;43153;50.984;18.204;2023-02-01T10:45:17;13.10;;;2.60;;
57309;SDS011;43153;50.984;18.204;2023-02-01T10:47:50;10.60;;;3.00;;
57309;SDS011;43153;50.984;18.204;2023-02-01T10:55:37;10.80;;;1.60;;
57309;SDS011;43153;50.984;18.204;2023-02-01T10:58:10;8.90;;;2.50;;
57309;SDS011;43153;50.984;18.204;2023-02-01T11:00:56;9.20;;;1.40;;
57309;SDS011;43153;50.984;18.204;2023-02-01T11:03:33;10.20;;;1.40;;
57309;SDS011;43153;50.984;18.204;2023-02-01T11:08:45;6.60;;;1.40;;
57309;SDS011;43153;50.984;18.204;2023-02-01T11:11:13;9.40;;;1.50;;
57309;SDS011;43153;50.984;18.204;2023-02-01T11:13:50;8.80;;;1.60;;
57309;SDS011;43153;50.984;18.204;2023-02-01T11:16:30;7.70;;;2.10;;
57309;SDS011;43153;50.984;18.204;2023-02-01T11:19:04;6.40;;;1.10;;
57309;SDS011;43153;50.984;18.204;2023-02-01T11:21:36;6.90;;;1.30;;
57309;SDS011;43153;50.984;18.204;2023-02-01T11:24:04;7.50;;;1.60;;
57309;SDS011;43153;50.984;18.204;2023-02-01T11:26:35;5.80;;;1.30;;
57309;SDS011;43153;50.984;18.204;2023-02-01T11:29:13;11.00;;;1.50;;
57309;SDS011;43153;50.984;18.204;2023-02-01T11:31:43;10.20;;;1.50;;
57309;SDS011;43153;50.984;18.204;2023-02-01T11:34:17;5.70;;;1.10;;
57309;SDS011;43153;50.984;18.204;2023-02-01T11:36:46;5.80;;;0.90;;
57309;SDS011;43153;50.984;18.204;2023-02-01T11:44:37;6.90;;;1.70;;
57309;SDS011;43153;50.984;18.204;2023-02-01T11:47:26;9.60;;;1.40;;
57309;SDS011;43153;50.984;18.204;2023-02-01T11:49:58;7.20;;;1.20;;
57309;SDS011;43153;50.984;18.204;2023-02-01T11:58:25;11.60;;;1.10;;
57309;SDS011;43153;50.984;18.204;2023-02-01T12:12:25;7.10;;;1.40;;
57309;SDS011;43153;50.984;18.204;2023-02-01T12:14:59;10.00;;;1.70;;
57309;SDS011;43153;50.984;18.204;2023-02-01T12:17:59;10.00;;;1.20;;
57309;SDS011;43153;50.984;18.204;2023-02-01T12:21:22;6.40;;;1.50;;
57309;SDS011;43153;50.984;18.204;2023-02-01T12:23:52;9.60;;;1.80;;
57309;SDS011;43153;50.984;18.204;2023-02-01T12:26:44;6.40;;;2.00;;
57309;SDS011;43153;50.984;18.204;2023-02-01T12:43:33;8.20;;;1.90;;
57309;SDS011;43153;50.984;18.204;2023-02-01T12:46:10;7.00;;;1.50;;
57309;SDS011;43153;50.984;18.204;2023-02-01T12:48:54;9.00;;;2.50;;
57309;SDS011;43153;50.984;18.204;2023-02-01T12:51:24;5.90;;;1.40;;
57309;SDS011;43153;50.984;18.204;2023-02-01T12:56:55;8.70;;;1.50;;
57309;SDS011;43153;50.984;18.204;2023-02-01T12:59:27;6.40;;;1.40;;
57309;SDS011;43153;50.984;18.204;2023-02-01T13:02:02;12.10;;;2.40;;
57309;SDS011;43153;50.984;18.204;2023-02-01T13:04:37;8.50;;;1.60;;
57309;SDS011;43153;50.984;18.204;2023-02-01T13:07:34;9.70;;;3.00;;
57309;SDS011;43153;50.984;18.204;2023-02-01T13:10:11;6.60;;;2.20;;
57309;SDS011;43153;50.984;18.204;2023-02-01T13:16:15;7.30;;;1.90;;
57309;SDS011;43153;50.984;18.204;2023-02-01T13:21:46;5.30;;;1.70;;
57309;SDS011;43153;50.984;18.204;2023-02-01T13:24:20;4.10;;;1.30;;
57309;SDS011;43153;50.984;18.204;2023-02-01T13:27:12;9.80;;;3.00;;
57309;SDS011;43153;50.984;18.204;2023-02-01T13:38:32;8.20;;;2.50;;
57309;SDS011;43153;50.984;18.204;2023-02-01T13:43:50;6.60;;;2.40;;
57309;SDS011;43153;50.984;18.204;2023-02-01T13:46:19;12.90;;;5.60;;
57309;SDS011;43153;50.984;18.204;2023-02-01T13:51:49;17.60;;;7.50;;
57309;SDS011;43153;50.984;18.204;2023-02-01T13:54:25;14.70;;;6.90;;
57309;SDS011;43153;50.984;18.204;2023-02-01T13:57:02;15.70;;;6.50;;
57309;SDS011;43153;50.984;18.204;2023-02-01T14:13:31;24.40;;;11.40;;
57309;SDS011;43153;50.984;18.204;2023-02-01T14:16:16;31.20;;;13.90;;
57309;SDS011;43153;50.984;18.204;2023-02-01T14:21:25;15.30;;;7.50;;
57309;SDS011;43153;50.984;18.204;2023-02-01T14:31:43;15.50;;;6.20;;
57309;SDS011;43153;50.984;18.204;2023-02-01T14:53:04;16.30;;;5.90;;
57309;SDS011;43153;50.984;18.204;2023-02-01T15:04:53;14.10;;;5.20;;
57309;SDS011;43153;50.984;18.204;2023-02-01T15:07:22;15.10;;;5.90;;
57309;SDS011;43153;50.984;18.204;2023-02-01T15:09:51;13.60;;;4.90;;
57309;SDS011;43153;50.984;18.204;2023-02-01T15:12:22;14.50;;;4.80;;
57309;SDS011;43153;50.984;18.204;2023-02-01T15:17:32;12.50;;;4.70;;
57309;SDS011;43153;50.984;18.204;2023-02-01T15:20:05;20.10;;;5.50;;
57309;SDS011;43153;50.984;18.204;2023-02-01T15:22:51;15.00;;;4.60;;
57309;SDS011;43153;50.984;18.204;2023-02-01T15:25:33;11.60;;;4.00;;
57309;SDS011;43153;50.984;18.204;2023-02-01T15:28:04;9.70;;;3.90;;
57309;SDS011;43153;50.984;18.204;2023-02-01T15:30:32;13.90;;;5.00;;
57309;SDS011;43153;50.984;18.204;2023-02-01T15:33:14;11.10;;;4.60;;
57309;SDS011;43153;50.984;18.204;2023-02-01T15:35:43;12.00;;;4.40;;
57309;SDS011;43153;50.984;18.204;2023-02-01T15:38:24;13.60;;;4.90;;
57309;SDS011;43153;50.984;18.204;2023-02-01T15:41:01;40.30;;;7.20;;
57309;SDS011;43153;50.984;18.204;2023-02-01T15:43:37;15.30;;;4.50;;
57309;SDS011;43153;50.984;18.204;2023-02-01T15:46:11;15.30;;;4.50;;
57309;SDS011;43153;50.984;18.204;2023-02-01T15:48:46;12.90;;;4.30;;
57309;SDS011;43153;50.984;18.204;2023-02-01T15:51:14;14.80;;;4.50;;
57309;SDS011;43153;50.984;18.204;2023-02-01T15:53:50;19.30;;;6.50;;
57309;SDS011;43153;50.984;18.204;2023-02-01T15:56:21;15.20;;;5.60;;
57309;SDS011;43153;50.984;18.204;2023-02-01T15:58:59;15.20;;;4.80;;
57309;SDS011;43153;50.984;18.204;2023-02-01T16:01:26;13.50;;;3.80;;
57309;SDS011;43153;50.984;18.204;2023-02-01T16:06:53;12.00;;;3.50;;
57309;SDS011;43153;50.984;18.204;2023-02-01T16:09:22;10.60;;;3.40;;
57309;SDS011;43153;50.984;18.204;2023-02-01T16:14:23;15.20;;;3.40;;
57309;SDS011;43153;50.984;18.204;2023-02-01T16:16:52;11.60;;;3.20;;
57309;SDS011;43153;50.984;18.204;2023-02-01T16:19:19;10.40;;;3.70;;
57309;SDS011;43153;50.984;18.204;2023-02-01T16:21:46;17.90;;;4.10;;
57309;SDS011;43153;50.984;18.204;2023-02-01T16:24:13;11.60;;;3.70;;
57309;SDS011;43153;50.984;18.204;2023-02-01T16:26:46;13.20;;;4.20;;
57309;SDS011;43153;50.984;18.204;2023-02-01T16:29:13;14.50;;;4.60;;
57309;SDS011;43153;50.984;18.204;2023-02-01T16:31:43;19.70;;;7.60;;
57309;SDS011;43153;50.984;18.204;2023-02-01T16:34:13;33.60;;;16.60;;
57309;SDS011;43153;50.984;18.204;2023-02-01T16:36:49;24.80;;;11.30;;
57309;SDS011;43153;50.984;18.204;2023-02-01T16:39:20;22.40;;;8.20;;
57309;SDS011;43153;50.984;18.204;2023-02-01T16:41:46;22.80;;;8.60;;
57309;SDS011;43153;50.984;18.204;2023-02-01T16:44:13;22.30;;;8.80;;
57309;SDS011;43153;50.984;18.204;2023-02-01T16:46:41;32.00;;;11.80;;
57309;SDS011;43153;50.984;18.204;2023-02-01T16:49:18;23.60;;;9.50;;
57309;SDS011;43153;50.984;18.204;2023-02-01T16:51:45;23.10;;;10.10;;
57309;SDS011;43153;50.984;18.204;2023-02-01T16:54:11;21.80;;;10.30;;
57309;SDS011;43153;50.984;18.204;2023-02-01T16:56:40;28.40;;;11.50;;
57309;SDS011;43153;50.984;18.204;2023-02-01T16:59:15;25.00;;;8.80;;
57309;SDS011;43153;50.984;18.204;2023-02-01T17:01:41;26.60;;;9.90;;
57309;SDS011;43153;50.984;18.204;2023-02-01T17:04:08;26.30;;;11.70;;
57309;SDS011;43153;50.984;18.204;2023-02-01T17:06:39;26.00;;;12.10;;
57309;SDS011;43153;50.984;18.204;2023-02-01T17:09:08;29.10;;;10.30;;
57309;SDS011;43153;50.984;18.204;2023-02-01T17:11:35;19.40;;;9.50;;
57309;SDS011;43153;50.984;18.204;2023-02-01T17:14:38;22.70;;;9.10;;
57309;SDS011;43153;50.984;18.204;2023-02-01T17:16:56;26.50;;;8.00;;
57309;SDS011;43153;50.984;18.204;2023-02-01T17:19:22;28.20;;;9.70;;
57309;SDS011;43153;50.984;18.204;2023-02-01T17:21:50;23.90;;;7.50;;
57309;SDS011;43153;50.984;18.204;2023-02-01T17:24:20;24.30;;;8.90;;
57309;SDS011;43153;50.984;18.204;2023-02-01T17:26:48;17.90;;;5.60;;
57309;SDS011;43153;50.984;18.204;2023-02-01T17:29:18;19.00;;;6.40;;
57309;SDS011;43153;50.984;18.204;2023-02-01T17:31:54;13.90;;;6.10;;
57309;SDS011;43153;50.984;18.204;2023-02-01T17:34:21;14.90;;;5.90;;
57309;SDS011;43153;50.984;18.204;2023-02-01T17:36:47;16.50;;;6.10;;
57309;SDS011;43153;50.984;18.204;2023-02-01T17:39:15;19.90;;;5.00;;
57309;SDS011;43153;50.984;18.204;2023-02-01T17:42:01;20.70;;;5.80;;
57309;SDS011;43153;50.984;18.204;2023-02-01T17:44:30;21.60;;;7.80;;
57309;SDS011;43153;50.984;18.204;2023-02-01T17:47:00;14.10;;;6.40;;
57309;SDS011;43153;50.984;18.204;2023-02-01T17:49:26;13.50;;;5.30;;
57309;SDS011;43153;50.984;18.204;2023-02-01T17:51:55;14.50;;;6.00;;
57309;SDS011;43153;50.984;18.204;2023-02-01T17:54:23;14.30;;;4.50;;
57309;SDS011;43153;50.984;18.204;2023-02-01T17:56:51;16.10;;;5.80;;
57309;SDS011;43153;50.984;18.204;2023-02-01T17:59:18;17.20;;;5.40;;